createdAt,value
2018-05-08T00:00:15.727Z,1.77
2018-05-08T00:02:43.327Z,1.47
2018-05-08T00:05:10.941Z,1.50
2018-05-08T00:07:38.534Z,1.70
2018-05-08T00:10:06.297Z,1.77
2018-05-08T00:12:33.891Z,1.73
2018-05-08T00:15:01.483Z,1.80
2018-05-08T00:17:29.099Z,1.60
2018-05-08T00:19:56.689Z,1.70
2018-05-08T00:22:24.310Z,1.63
2018-05-08T00:24:51.899Z,1.57
2018-05-08T00:27:19.516Z,1.47
2018-05-08T00:29:47.113Z,1.23
2018-05-08T00:32:14.743Z,1.70
2018-05-08T00:34:42.330Z,2.10
2018-05-08T00:37:09.959Z,1.83
2018-05-08T00:39:37.547Z,1.37
2018-05-08T00:42:05.148Z,1.60
2018-05-08T00:44:32.777Z,1.73
2018-05-08T00:47:00.362Z,1.40
2018-05-08T00:49:27.986Z,1.43
2018-05-08T00:51:55.575Z,1.93
2018-05-08T00:54:35.015Z,1.43
2018-05-08T00:57:02.612Z,1.50
2018-05-08T00:59:30.245Z,1.53
2018-05-08T01:01:57.832Z,1.30
2018-05-08T01:04:25.463Z,2.50
2018-05-08T01:06:53.051Z,1.60
2018-05-08T01:09:20.643Z,1.47
2018-05-08T01:11:48.269Z,1.90
2018-05-08T01:14:15.850Z,1.73
2018-05-08T01:16:43.463Z,1.70
2018-05-08T01:19:11.066Z,1.90
2018-05-08T01:21:38.680Z,2.07
2018-05-08T01:24:06.292Z,2.40
2018-05-08T01:26:33.898Z,1.80
2018-05-08T01:29:01.598Z,1.43
2018-05-08T01:31:29.303Z,1.87
2018-05-08T01:33:56.894Z,1.40
2018-05-08T01:36:24.480Z,1.83
2018-05-08T01:38:52.102Z,2.30
2018-05-08T01:41:19.695Z,1.50
2018-05-08T01:43:47.327Z,1.40
2018-05-08T01:46:14.913Z,1.67
2018-05-08T01:48:42.541Z,1.43
2018-05-08T01:51:10.130Z,1.70
2018-05-08T01:53:37.766Z,2.10
2018-05-08T01:56:05.354Z,1.47
2018-05-08T01:58:32.946Z,1.33
2018-05-08T02:01:00.565Z,1.80
2018-05-08T02:03:28.157Z,1.63
2018-05-08T02:05:55.766Z,1.87
2018-05-08T02:08:23.357Z,1.67
2018-05-08T02:10:51.182Z,1.40
2018-05-08T02:13:18.776Z,1.73
2018-05-08T02:15:46.371Z,1.53
2018-05-08T02:18:14.011Z,2.07
2018-05-08T02:20:41.671Z,2.00
2018-05-08T02:23:09.278Z,1.43
2018-05-08T02:25:36.864Z,1.37
2018-05-08T02:28:04.624Z,1.50
2018-05-08T02:30:32.223Z,1.77
2018-05-08T02:32:59.810Z,1.30
2018-05-08T02:35:27.420Z,1.47
2018-05-08T02:37:55.012Z,1.63
2018-05-08T02:40:22.639Z,1.47
2018-05-08T02:42:50.230Z,1.43
2018-05-08T02:45:18.051Z,1.60
2018-05-08T02:47:45.665Z,1.60
2018-05-08T02:50:13.263Z,1.70
2018-05-08T02:52:40.877Z,1.70
2018-05-08T02:55:08.473Z,1.63
2018-05-08T02:57:36.091Z,1.60
2018-05-08T03:00:03.689Z,1.80
2018-05-08T03:02:31.315Z,1.57
2018-05-08T03:04:58.914Z,2.00
2018-05-08T03:07:26.513Z,1.83
2018-05-08T03:09:54.122Z,1.80
2018-05-08T03:12:21.708Z,1.57
2018-05-08T03:14:49.318Z,2.03
2018-05-08T03:17:16.906Z,1.30
2018-05-08T03:19:44.547Z,1.70
2018-05-08T03:22:12.190Z,1.70
2018-05-08T03:24:39.750Z,1.50
2018-05-08T03:27:07.362Z,1.80
2018-05-08T03:29:34.950Z,1.83
2018-05-08T03:32:02.560Z,1.50
2018-05-08T03:34:30.151Z,1.80
2018-05-08T03:36:58.042Z,1.70
2018-05-08T03:39:25.629Z,2.10
2018-05-08T03:41:53.215Z,1.80
2018-05-08T03:44:20.830Z,2.10
2018-05-08T03:46:48.427Z,1.80
2018-05-08T03:49:16.062Z,1.77
2018-05-08T03:51:43.656Z,1.43
2018-05-08T03:54:11.249Z,2.00
2018-05-08T03:56:38.864Z,1.70
2018-05-08T03:59:06.451Z,1.93
2018-05-08T04:01:45.834Z,2.57
2018-05-08T04:04:25.286Z,1.80
2018-05-08T04:07:07.068Z,2.10
2018-05-08T04:09:34.657Z,2.40
2018-05-08T04:12:02.493Z,1.70
2018-05-08T04:14:30.073Z,2.33
2018-05-08T04:16:57.668Z,2.00
2018-05-08T04:19:25.282Z,1.73
2018-05-08T04:21:52.875Z,2.13
2018-05-08T04:24:20.495Z,2.57
2018-05-08T04:26:48.280Z,2.00
2018-05-08T04:29:16.026Z,2.30
2018-05-08T04:31:43.627Z,2.27
2018-05-08T04:34:11.322Z,2.87
2018-05-08T04:36:38.991Z,2.33
2018-05-08T04:39:06.549Z,2.10
2018-05-08T04:41:34.166Z,2.00
2018-05-08T04:44:01.754Z,2.30
2018-05-08T04:46:29.383Z,2.13
2018-05-08T04:48:56.979Z,2.20
2018-05-08T04:51:24.571Z,2.50
2018-05-08T04:53:52.190Z,2.40
2018-05-08T04:56:19.779Z,2.60
2018-05-08T04:58:47.386Z,1.60
2018-05-08T05:01:14.971Z,2.03
2018-05-08T05:03:42.794Z,2.37
2018-05-08T05:06:10.378Z,3.00
2018-05-08T05:08:37.971Z,3.00
2018-05-08T05:11:06.118Z,2.67
2018-05-08T05:13:33.711Z,2.27
2018-05-08T05:16:01.327Z,2.53
2018-05-08T05:18:28.918Z,2.50
2018-05-08T05:20:56.527Z,2.20
2018-05-08T05:23:24.152Z,2.00
2018-05-08T05:25:51.771Z,2.10
2018-05-08T05:28:19.430Z,2.03
2018-05-08T05:30:47.020Z,2.33
2018-05-08T05:33:14.630Z,2.17
2018-05-08T05:35:42.219Z,2.67
2018-05-08T05:38:09.854Z,2.00
2018-05-08T05:40:37.470Z,2.30
2018-05-08T05:43:05.058Z,2.07
2018-05-08T05:45:32.675Z,2.50
2018-05-08T05:48:00.278Z,2.50
2018-05-08T05:50:28.091Z,2.73
2018-05-08T05:52:55.712Z,2.23
2018-05-08T05:55:23.304Z,2.57
2018-05-08T05:57:50.920Z,1.80
2018-05-08T06:00:18.520Z,2.27
2018-05-08T06:02:46.128Z,2.50
2018-05-08T06:05:13.741Z,2.00
2018-05-08T06:07:41.367Z,2.67
2018-05-08T06:10:08.977Z,1.90
2018-05-08T06:12:36.565Z,2.30
2018-05-08T06:15:04.156Z,2.20
2018-05-08T06:17:31.773Z,2.87
2018-05-08T06:19:59.365Z,2.00
2018-05-08T06:22:27.093Z,2.20
2018-05-08T06:24:54.671Z,2.57
2018-05-08T06:27:22.254Z,2.67
2018-05-08T06:29:49.867Z,2.70
2018-05-08T06:32:17.466Z,1.80
2018-05-08T06:34:45.085Z,1.87
2018-05-08T06:37:12.678Z,2.00
2018-05-08T06:39:40.765Z,2.30
2018-05-08T06:42:08.390Z,2.27
2018-05-08T06:44:36.050Z,4.93
2018-05-08T06:47:03.911Z,1.87
2018-05-08T06:49:31.578Z,2.50
2018-05-08T06:51:59.346Z,2.20
2018-05-08T06:54:26.980Z,2.50
2018-05-08T06:56:54.588Z,2.20
2018-05-08T06:59:22.308Z,2.00
2018-05-08T07:01:50.012Z,2.00
2018-05-08T07:04:17.624Z,2.20
2018-05-08T07:06:45.247Z,2.20
2018-05-08T07:09:12.901Z,2.00
2018-05-08T07:11:40.648Z,2.10
2018-05-08T07:14:08.239Z,1.97
2018-05-08T07:16:35.824Z,2.77
2018-05-08T07:19:03.440Z,3.40
2018-05-08T07:21:31.035Z,2.07
2018-05-08T07:23:58.692Z,2.13
2018-05-08T07:26:26.316Z,2.70
2018-05-08T07:28:53.908Z,3.80
2018-05-08T07:31:21.530Z,2.30
2018-05-08T07:33:49.123Z,2.23
2018-05-08T07:36:16.772Z,2.20
2018-05-08T07:38:44.375Z,2.67
2018-05-08T07:41:12.095Z,2.10
2018-05-08T07:43:39.788Z,2.10
2018-05-08T07:46:07.395Z,1.83
2018-05-08T07:48:35.021Z,1.57
2018-05-08T07:51:02.620Z,2.40
2018-05-08T07:53:30.207Z,2.27
2018-05-08T07:55:58.732Z,2.17
2018-05-08T07:58:26.518Z,2.10
2018-05-08T08:00:54.139Z,2.50
2018-05-08T08:03:23.049Z,2.30
2018-05-08T08:05:50.715Z,3.10
2018-05-08T08:08:18.338Z,2.70
2018-05-08T08:10:46.085Z,1.67
2018-05-08T08:13:13.834Z,1.83
2018-05-08T08:15:41.414Z,2.40
2018-05-08T08:18:09.027Z,2.17
2018-05-08T08:20:36.643Z,2.33
2018-05-08T08:23:04.250Z,1.90
2018-05-08T08:25:31.896Z,1.77
2018-05-08T08:27:59.952Z,3.77
2018-05-08T08:30:27.555Z,2.50
2018-05-08T08:32:55.593Z,2.20
2018-05-08T08:35:23.496Z,2.13
2018-05-08T08:37:51.153Z,3.60
2018-05-08T08:40:18.794Z,2.50
2018-05-08T08:42:46.744Z,2.83
2018-05-08T08:45:14.366Z,2.27
2018-05-08T08:47:42.081Z,1.93
2018-05-08T08:50:09.688Z,2.20
2018-05-08T08:52:37.296Z,2.17
2018-05-08T08:55:04.894Z,1.67
2018-05-08T08:57:32.498Z,1.90
2018-05-08T09:00:00.111Z,1.87
2018-05-08T09:02:27.722Z,1.77
2018-05-08T09:04:55.351Z,2.00
2018-05-08T09:07:23.094Z,2.23
2018-05-08T09:09:50.718Z,2.10
2018-05-08T09:12:18.298Z,2.10
2018-05-08T09:14:46.343Z,2.70
2018-05-08T09:17:13.941Z,3.20
2018-05-08T09:19:41.584Z,1.80
2018-05-08T09:22:09.165Z,2.30
2018-05-08T09:24:36.756Z,2.50
2018-05-08T09:27:04.391Z,2.50
2018-05-08T09:29:32.000Z,3.27
2018-05-08T09:31:59.629Z,1.97
2018-05-08T09:34:27.238Z,3.17
2018-05-08T09:36:54.854Z,2.40
2018-05-08T09:39:22.455Z,1.90
2018-05-08T09:41:50.067Z,2.50
2018-05-08T09:44:17.678Z,2.97
2018-05-08T09:46:45.445Z,2.70
2018-05-08T09:49:13.595Z,2.20
2018-05-08T09:51:41.248Z,2.40
2018-05-08T09:54:09.361Z,3.47
2018-05-08T09:56:37.021Z,2.33
2018-05-08T09:59:04.635Z,1.73
2018-05-08T10:01:32.653Z,2.97
2018-05-08T10:04:00.305Z,3.30
2018-05-08T10:06:28.041Z,2.30
2018-05-08T10:08:55.910Z,4.70
2018-05-08T10:11:23.506Z,2.00
2018-05-08T10:13:51.138Z,3.33
2018-05-08T10:16:18.742Z,3.47
2018-05-08T10:18:46.472Z,2.63
2018-05-08T10:21:14.010Z,2.80
2018-05-08T10:23:41.918Z,2.47
2018-05-08T10:26:09.639Z,2.27
2018-05-08T10:28:37.218Z,3.10
2018-05-08T10:31:04.900Z,2.70
2018-05-08T10:33:32.494Z,2.37
2018-05-08T10:36:00.134Z,2.30
2018-05-08T10:38:27.746Z,3.40
2018-05-08T10:40:55.773Z,2.00
2018-05-08T10:43:23.365Z,2.90
2018-05-08T10:45:50.951Z,2.63
2018-05-08T10:48:18.563Z,2.97
2018-05-08T10:50:46.141Z,2.43
2018-05-08T10:53:14.004Z,2.53
2018-05-08T10:55:41.610Z,2.40
2018-05-08T10:58:09.964Z,2.93
2018-05-08T11:00:37.702Z,2.07
2018-05-08T11:03:05.290Z,2.20
2018-05-08T11:05:32.899Z,1.90
2018-05-08T11:08:00.487Z,2.37
2018-05-08T11:10:28.216Z,2.97
2018-05-08T11:12:55.838Z,2.30
2018-05-08T11:15:23.421Z,2.30
2018-05-08T11:17:51.390Z,2.93
2018-05-08T11:20:18.973Z,3.23
2018-05-08T11:22:46.579Z,2.00
2018-05-08T11:25:14.215Z,2.10
2018-05-08T11:27:42.194Z,2.53
2018-05-08T11:30:09.787Z,2.23
2018-05-08T11:32:38.111Z,2.50
2018-05-08T11:35:05.726Z,2.20
2018-05-08T11:37:33.313Z,2.33
2018-05-08T11:40:00.978Z,2.80
2018-05-08T11:42:28.564Z,4.93
2018-05-08T11:44:56.157Z,2.27
2018-05-08T11:47:23.769Z,3.33
2018-05-08T11:49:51.821Z,2.40
2018-05-08T11:52:19.454Z,2.67
2018-05-08T11:54:47.081Z,2.50
2018-05-08T11:57:15.323Z,4.30
2018-05-08T11:59:43.214Z,2.90
2018-05-08T12:02:10.803Z,2.13
2018-05-08T12:04:38.435Z,2.30
2018-05-08T12:07:06.050Z,2.07
2018-05-08T12:09:33.638Z,2.33
2018-05-08T12:12:01.245Z,3.40
2018-05-08T12:14:28.839Z,2.77
2018-05-08T12:16:59.220Z,2.27
2018-05-08T12:19:28.417Z,2.37
2018-05-08T12:21:56.089Z,2.50
2018-05-08T12:24:23.726Z,2.30
2018-05-08T12:26:51.321Z,2.10
2018-05-08T12:29:18.931Z,2.73
2018-05-08T12:31:46.530Z,2.50
2018-05-08T12:34:14.492Z,1.97
2018-05-08T12:36:42.091Z,2.13
2018-05-08T12:39:09.794Z,2.47
2018-05-08T12:41:37.414Z,2.40
2018-05-08T12:44:05.444Z,2.53
2018-05-08T12:46:33.111Z,3.13
2018-05-08T12:49:00.800Z,2.40
2018-05-08T12:51:28.756Z,1.80
2018-05-08T12:53:56.430Z,2.40
2018-05-08T12:56:24.050Z,2.00
2018-05-08T12:58:51.643Z,2.33
2018-05-08T13:01:19.269Z,2.10
2018-05-08T13:03:46.854Z,2.30
2018-05-08T13:06:14.549Z,2.10
2018-05-08T13:08:42.144Z,2.97
2018-05-08T13:11:10.057Z,2.50
2018-05-08T13:13:39.292Z,1.80
2018-05-08T13:16:08.612Z,2.10
2018-05-08T13:18:36.290Z,2.10
2018-05-08T13:21:04.359Z,2.63
2018-05-08T13:23:32.331Z,1.87
2018-05-08T13:25:59.941Z,1.80
2018-05-08T13:28:27.538Z,2.50
2018-05-08T13:30:55.166Z,1.80
2018-05-08T13:33:22.976Z,2.07
2018-05-08T13:35:50.809Z,2.00
2018-05-08T13:38:18.635Z,2.00
2018-05-08T13:40:46.231Z,1.87
2018-05-08T13:43:13.841Z,2.07
2018-05-08T13:45:41.432Z,1.90
2018-05-08T13:48:09.252Z,1.93
2018-05-08T13:50:36.967Z,2.23
2018-05-08T13:53:04.860Z,1.63
2018-05-08T13:55:32.471Z,1.70
2018-05-08T13:58:00.094Z,1.87
2018-05-08T14:00:27.721Z,1.60
2018-05-08T14:02:55.318Z,1.80
2018-05-08T14:05:23.414Z,1.73
2018-05-08T14:07:50.994Z,1.90
2018-05-08T14:10:20.967Z,2.33
2018-05-08T14:12:48.563Z,2.07
2018-05-08T14:15:16.509Z,2.23
2018-05-08T14:17:45.071Z,2.30
2018-05-08T14:20:13.032Z,2.20
2018-05-08T14:22:40.644Z,2.20
2018-05-08T14:25:08.231Z,1.77
2018-05-08T14:27:35.849Z,2.40
2018-05-08T14:30:03.539Z,2.37
2018-05-08T14:32:31.146Z,2.07
2018-05-08T14:34:58.732Z,2.30
2018-05-08T14:37:26.366Z,2.73
2018-05-08T14:39:53.971Z,2.90
2018-05-08T14:42:21.774Z,2.17
2018-05-08T14:44:49.519Z,1.70
2018-05-08T14:47:17.288Z,2.00
2018-05-08T14:49:45.059Z,1.70
2018-05-08T14:52:12.646Z,2.37
2018-05-08T14:54:40.258Z,2.23
2018-05-08T14:57:07.923Z,2.20
2018-05-08T14:59:35.547Z,3.87
2018-05-08T15:02:03.141Z,2.50
2018-05-08T15:04:30.752Z,2.80
2018-05-08T15:06:58.553Z,2.50
2018-05-08T15:09:26.180Z,2.90
2018-05-08T15:11:53.771Z,2.10
2018-05-08T15:14:21.438Z,2.50
2018-05-08T15:16:49.176Z,3.87
2018-05-08T15:19:16.767Z,2.37
2018-05-08T15:21:44.405Z,2.67
2018-05-08T15:24:12.003Z,2.27
2018-05-08T15:26:39.623Z,2.10
2018-05-08T15:29:07.303Z,1.90
2018-05-08T15:31:34.867Z,2.40
2018-05-08T15:34:03.616Z,2.30
2018-05-08T15:36:31.750Z,2.20
2018-05-08T15:38:59.600Z,4.33
2018-05-08T15:41:27.425Z,2.27
2018-05-08T15:43:55.031Z,2.70
2018-05-08T15:46:22.617Z,2.20
2018-05-08T15:48:50.393Z,3.00
2018-05-08T15:51:17.977Z,1.90
2018-05-08T15:53:45.566Z,2.53
2018-05-08T15:56:13.179Z,2.43
2018-05-08T15:58:40.785Z,2.90
2018-05-08T16:01:08.703Z,2.10
2018-05-08T16:03:36.161Z,2.13
2018-05-08T16:06:03.804Z,2.43
2018-05-08T16:08:31.395Z,2.50
2018-05-08T16:10:58.982Z,2.20
2018-05-08T16:13:26.585Z,2.87
2018-05-08T16:15:54.171Z,2.80
2018-05-08T16:18:24.527Z,2.60
2018-05-08T16:20:52.872Z,2.57
2018-05-08T16:23:20.579Z,2.17
2018-05-08T16:25:48.165Z,2.70
2018-05-08T16:28:15.787Z,1.87
2018-05-08T16:30:43.378Z,2.53
2018-05-08T16:33:11.012Z,3.30
2018-05-08T16:35:38.604Z,2.73
2018-05-08T16:38:06.228Z,2.20
2018-05-08T16:40:33.830Z,2.30
2018-05-08T16:43:01.419Z,2.33
2018-05-08T16:45:29.041Z,2.40
2018-05-08T16:47:56.642Z,2.47
2018-05-08T16:50:24.257Z,1.70
2018-05-08T16:52:51.859Z,2.47
2018-05-08T16:55:19.495Z,2.20
2018-05-08T16:57:47.081Z,2.60
2018-05-08T17:00:14.717Z,1.90
2018-05-08T17:02:42.303Z,2.30
2018-05-08T17:05:09.922Z,2.03
2018-05-08T17:07:37.548Z,2.20
2018-05-08T17:10:05.134Z,2.30
2018-05-08T17:12:32.747Z,2.30
2018-05-08T17:15:00.353Z,2.67
2018-05-08T17:17:27.963Z,2.30
2018-05-08T17:19:55.566Z,2.30
2018-05-08T17:22:23.199Z,2.33
2018-05-08T17:24:50.791Z,2.40
2018-05-08T17:27:18.410Z,2.10
2018-05-08T17:29:45.997Z,2.00
2018-05-08T17:32:13.586Z,2.20
2018-05-08T17:34:41.204Z,2.23
2018-05-08T17:37:08.883Z,2.50
2018-05-08T17:39:36.499Z,2.80
2018-05-08T17:42:04.094Z,2.00
2018-05-08T17:44:31.709Z,2.53
2018-05-08T17:46:59.342Z,2.80
2018-05-08T17:49:26.957Z,3.60
2018-05-08T17:51:54.551Z,2.77
2018-05-08T17:54:22.167Z,2.17
2018-05-08T17:56:49.755Z,2.43
2018-05-08T17:59:17.367Z,2.60
2018-05-08T18:01:44.950Z,2.80
2018-05-08T18:04:12.663Z,3.17
2018-05-08T18:06:40.200Z,2.20
2018-05-08T18:09:07.805Z,2.30
2018-05-08T18:11:35.424Z,2.37
2018-05-08T18:14:03.027Z,2.83
2018-05-08T18:16:30.641Z,2.50
2018-05-08T18:18:58.233Z,2.20
2018-05-08T18:21:26.060Z,2.90
2018-05-08T18:23:53.650Z,2.27
2018-05-08T18:26:21.331Z,2.57
2018-05-08T18:28:48.926Z,2.27
2018-05-08T18:31:16.551Z,2.07
2018-05-08T18:33:44.144Z,2.70
2018-05-08T18:36:11.754Z,2.60
2018-05-08T18:38:39.399Z,2.20
2018-05-08T18:41:07.020Z,2.13
2018-05-08T18:43:34.610Z,3.17
2018-05-08T18:46:02.587Z,3.00
2018-05-08T18:48:30.183Z,2.40
2018-05-08T18:50:57.776Z,3.20
2018-05-08T18:53:25.382Z,2.97
2018-05-08T18:55:53.037Z,2.47
2018-05-08T18:58:20.650Z,2.50
2018-05-08T19:00:53.759Z,2.70
2018-05-08T19:03:21.438Z,3.10
2018-05-08T19:05:49.507Z,2.73
2018-05-08T19:08:17.325Z,2.30
2018-05-08T19:10:44.924Z,2.40
2018-05-08T19:13:12.520Z,2.80
2018-05-08T19:15:45.520Z,2.87
2018-05-08T19:18:13.112Z,2.80
2018-05-08T19:20:40.723Z,2.67
2018-05-08T19:23:08.307Z,2.77
2018-05-08T19:25:36.035Z,2.93
2018-05-08T19:28:09.254Z,2.43
2018-05-08T19:30:37.002Z,2.33
2018-05-08T19:33:04.596Z,2.50
2018-05-08T19:35:37.664Z,2.77
2018-05-08T19:38:05.278Z,3.43
2018-05-08T19:40:32.897Z,3.00
2018-05-08T19:43:00.490Z,3.20
2018-05-08T19:45:28.115Z,2.80
2018-05-08T19:47:55.710Z,2.70
2018-05-08T19:50:23.323Z,2.80
2018-05-08T19:52:50.915Z,2.83
2018-05-08T19:55:18.526Z,2.50
2018-05-08T19:57:46.211Z,2.47
2018-05-08T20:00:13.767Z,3.10
2018-05-08T20:02:41.389Z,3.23
2018-05-08T20:05:08.977Z,2.67
2018-05-08T20:07:36.699Z,3.10
2018-05-08T20:10:04.733Z,3.03
2018-05-08T20:12:32.355Z,2.13
2018-05-08T20:14:59.947Z,2.50
2018-05-08T20:17:27.755Z,2.80
2018-05-08T20:19:55.345Z,2.90
2018-05-08T20:22:22.933Z,2.40
2018-05-08T20:24:50.572Z,2.70
2018-05-08T20:27:18.209Z,3.37
2018-05-08T20:29:45.834Z,3.40
2018-05-08T20:32:13.419Z,3.67
2018-05-08T20:34:41.072Z,2.60
2018-05-08T20:37:08.668Z,2.50
2018-05-08T20:39:36.288Z,2.70
2018-05-08T20:42:03.890Z,3.17
2018-05-08T20:44:31.575Z,2.63
2018-05-08T20:46:59.178Z,4.53
2018-05-08T20:49:26.788Z,3.40
2018-05-08T20:51:54.372Z,2.60
2018-05-08T20:54:22.189Z,2.97
2018-05-08T20:56:49.779Z,2.90
2018-05-08T20:59:17.368Z,3.10
2018-05-08T21:01:44.996Z,3.77
2018-05-08T21:04:12.585Z,3.50
2018-05-08T21:06:40.207Z,2.93
2018-05-08T21:09:07.862Z,4.40
2018-05-08T21:11:36.920Z,3.50
2018-05-08T21:14:04.526Z,3.13
2018-05-08T21:16:32.209Z,3.70
2018-05-08T21:18:59.823Z,4.60
2018-05-08T21:21:27.431Z,4.27
2018-05-08T21:23:55.045Z,4.00
2018-05-08T21:26:22.674Z,4.33
2018-05-08T21:28:55.842Z,3.80
2018-05-08T21:31:23.431Z,4.60
2018-05-08T21:33:51.059Z,4.33
2018-05-08T21:36:18.650Z,3.67
2018-05-08T21:38:46.518Z,3.97
2018-05-08T21:41:14.106Z,3.70
2018-05-08T21:43:41.719Z,4.63
2018-05-08T21:46:09.340Z,4.20
2018-05-08T21:48:36.950Z,4.37
2018-05-08T21:51:04.562Z,3.73
2018-05-08T21:53:32.168Z,3.43
2018-05-08T21:55:59.991Z,3.80
2018-05-08T21:58:27.582Z,3.83
2018-05-08T22:00:55.184Z,3.50
2018-05-08T22:03:22.796Z,3.77
2018-05-08T22:05:50.383Z,3.30
2018-05-08T22:08:18.001Z,4.20
2018-05-08T22:10:45.601Z,3.47
2018-05-08T22:13:13.431Z,3.90
2018-05-08T22:15:41.017Z,3.67
2018-05-08T22:18:08.671Z,3.90
2018-05-08T22:20:36.284Z,3.77
2018-05-08T22:23:03.870Z,3.03
2018-05-08T22:25:31.488Z,3.30
2018-05-08T22:27:59.074Z,3.10
2018-05-08T22:30:26.898Z,3.27
2018-05-08T22:32:54.510Z,3.80
2018-05-08T22:35:22.109Z,3.70
2018-05-08T22:37:49.727Z,3.47
2018-05-08T22:40:17.318Z,3.00
2018-05-08T22:42:44.932Z,4.03
2018-05-08T22:45:12.519Z,3.87
2018-05-08T22:47:40.149Z,3.67
2018-05-08T22:50:07.738Z,3.30
2018-05-08T22:52:35.332Z,3.23
2018-05-08T22:57:36.697Z,4.10
2018-05-08T23:00:04.336Z,3.37
2018-05-08T23:02:31.957Z,4.00
2018-05-08T23:04:59.580Z,3.90
2018-05-08T23:07:27.527Z,3.10
2018-05-08T23:09:55.117Z,2.80
2018-05-08T23:12:22.703Z,3.70
2018-05-08T23:14:50.728Z,3.40
2018-05-08T23:17:18.318Z,3.57
2018-05-08T23:19:45.918Z,4.33
2018-05-08T23:22:13.547Z,3.27
2018-05-08T23:24:41.135Z,3.90
2018-05-08T23:27:08.840Z,3.17
2018-05-08T23:29:36.504Z,3.57
2018-05-08T23:32:04.094Z,3.30
2018-05-08T23:34:31.683Z,3.37
2018-05-08T23:36:59.323Z,4.10
2018-05-08T23:39:26.937Z,3.63
2018-05-08T23:41:54.537Z,3.40
2018-05-08T23:44:22.171Z,4.63
2018-05-08T23:46:49.769Z,3.73
2018-05-08T23:49:17.367Z,3.10
2018-05-08T23:51:44.997Z,4.43
2018-05-08T23:54:12.598Z,3.43
2018-05-08T23:56:40.198Z,3.77
2018-05-08T23:59:07.944Z,4.00
